首页
METAR-TAF:

METAR-TAF

机场 :

安徒生, 南卡罗来纳州, 美国

纬度: 34-29-52N, 经度: 082-42-35W, 海拔: 238米

当前天气观测

该预报发布于17分钟前的09:56 UTC
风速7节,风向东转东北
温度 21°C
湿度 88%
气压 1019 hPa
能見度: 12.9公里
少量云层高于900英尺
散云层高于2200英尺
阴天层高于3700英尺

METAR: KAND 260956Z AUTO 07007KT 8SM FEW009 SCT022 OVC037 21/19 A3008 RMK AO2 SLP177 T02060194

时间: 06:13 (10:13 UTC)

预报

该预报发布于4小时和35分钟前的05:38 UTC
预报有效从26日的 06点(UTC)到 27日的 06点(UTC)
风速5节,风向东转东北
能見度: 10公里
散云层高于2500英尺
阴天层高于4500英尺
附近有阵雨
短暂存在
从 26日的 06点(UTC)到 26日的 08点(UTC)
散云层高于1500英尺
多云层高于2500英尺
阴天层高于4500英尺
从 26日的 0800点(UTC)
风速6节,风向东转东北
能見度: 10公里
阴天层高于1000英尺
附近有阵雨
从 26日的 1100点(UTC)
风速7节,风向东转东北
能見度: 10公里
阴天层高于1700英尺
几率 30%
从 26日的 17点(UTC)到 26日的 21点(UTC)
能見度: 6.4公里
阴天层高于800英尺
小阵雨, 轻雾
从 26日的 2100点(UTC)
风速7节,风向
能見度: 10公里
多云层高于4500英尺
附近有阵雨
从 27日的 0500点(UTC)
风速8节,风向东转东北
能見度: 10公里
阴天层高于1600英尺

TAF: KAND 260538Z 2606/2706 07005KT P6SM VCSH SCT025 OVC045 TEMPO 2606/2608 SCT015 BKN025 OVC045 FM260800 07006KT P6SM VCSH OVC010 FM261100 07007KT P6SM OVC017 PROB30 2617/2621 4SM -SHRA BR OVC008 FM262100 08007KT P6SM VCSH BKN045 FM270500 06008KT P6SM OVC016

超过4000个机场的气象观测和天气预报(METAR&TAF报告)。

可查询的气象台以黄色和红色小点在地图上表示。

将鼠标移到小点上方,可查看气象台名称。

然后点击查看天气观测和预报。

如需切换地图:点击带黑十字的绿色按钮放大地图;点击带横线的绿色按钮缩小地图;或者点击绿色箭头查看邻近地区的地图。


METAR-TAF: